RJKN(METAR)
04/24 18:00
RJKN 240900Z 21011KT 7000 RA FEW006 SCT010 BKN050 23/22 Q1010 RMK
A2984=
戻る
トップページへ戻る
IMOC Co,.Ltd.